createdAt,value
2017-06-09T00:00:10.925Z,83.6
2017-06-09T00:01:18.408Z,85.6
2017-06-09T00:02:26.245Z,84.8
2017-06-09T00:03:33.725Z,85.4
2017-06-09T00:06:03.310Z,84.7
2017-06-09T00:07:10.799Z,86.1
2017-06-09T00:08:18.627Z,86.2
2017-06-09T00:09:27.522Z,86
2017-06-09T00:10:35.002Z,86.3
2017-06-09T00:11:42.484Z,86.6
2017-06-09T00:14:12.380Z,86.2
2017-06-09T00:15:19.867Z,86
2017-06-09T00:16:27.030Z,84.1
2017-06-09T00:17:34.510Z,86
2017-06-09T00:18:42.008Z,83.4
2017-06-09T00:19:49.583Z,82.3
2017-06-09T00:20:56.729Z,85.1
2017-06-09T00:22:04.205Z,85.1
2017-06-09T00:23:11.695Z,84.5
2017-06-09T00:24:19.179Z,86.1
2017-06-09T00:25:26.765Z,83.8
2017-06-09T00:26:34.273Z,84.2
2017-06-09T00:27:41.422Z,86.1
2017-06-09T00:28:48.574Z,85.9
2017-06-09T00:29:56.056Z,84.6
2017-06-09T00:31:03.837Z,85.5
2017-06-09T00:32:11.349Z,85.3
2017-06-09T00:33:18.828Z,87.1
2017-06-09T00:34:26.307Z,88
2017-06-09T00:35:33.462Z,85.6
2017-06-09T00:36:41.244Z,86.6
2017-06-09T00:37:48.727Z,87.2
2017-06-09T00:38:56.209Z,86
2017-06-09T00:40:03.036Z,87.1
2017-06-09T00:41:10.513Z,87.7
2017-06-09T00:42:18.246Z,86.7
2017-06-09T00:43:25.068Z,86.4
2017-06-09T00:44:32.553Z,87.5
2017-06-09T00:45:40.037Z,87.7
2017-06-09T00:46:47.191Z,88.1
2017-06-09T00:47:54.921Z,86.7
2017-06-09T00:49:02.406Z,85.8
2017-06-09T00:50:09.920Z,85.2
2017-06-09T00:51:17.408Z,86.5
2017-06-09T00:52:24.555Z,85.6
2017-06-09T00:53:32.285Z,86
2017-06-09T00:54:39.766Z,86.3
2017-06-09T00:55:47.249Z,87.3
2017-06-09T00:56:54.735Z,87.6
2017-06-09T00:58:02.216Z,89.2
2017-06-09T00:59:09.956Z,87.2
2017-06-09T01:00:17.435Z,87.1
2017-06-09T01:01:24.913Z,85.9
2017-06-09T01:02:32.395Z,85.7
2017-06-09T01:03:39.880Z,87
2017-06-09T01:04:47.618Z,84.9
2017-06-09T01:05:55.098Z,88.6
2017-06-09T01:07:02.589Z,86.9
2017-06-09T01:08:10.067Z,86.2
2017-06-09T01:09:17.547Z,86.1
2017-06-09T01:10:24.824Z,88.6
2017-06-09T01:11:31.976Z,87
2017-06-09T01:12:39.462Z,87.3
2017-06-09T01:13:46.607Z,89.3
2017-06-09T01:14:54.092Z,87.6
2017-06-09T01:16:01.822Z,88.6
2017-06-09T01:17:09.300Z,88.6
2017-06-09T01:18:16.773Z,87.1
2017-06-09T01:19:24.258Z,87.3
2017-06-09T01:20:31.740Z,86.5
2017-06-09T01:21:39.472Z,88.5
2017-06-09T01:22:46.961Z,88.5
2017-06-09T01:23:54.444Z,89.2
2017-06-09T01:25:01.923Z,88.5
2017-06-09T01:26:09.397Z,88.5
2017-06-09T01:27:17.180Z,88.5
2017-06-09T01:28:24.334Z,89.9
2017-06-09T01:29:31.813Z,87.1
2017-06-09T01:30:38.955Z,87.5
2017-06-09T01:31:46.436Z,88.4
2017-06-09T01:32:54.211Z,86.6
2017-06-09T01:34:01.710Z,88.4
2017-06-09T01:35:09.195Z,88.3
2017-06-09T01:36:16.687Z,87.7
2017-06-09T01:37:24.171Z,88.7
2017-06-09T01:38:31.580Z,88.3
2017-06-09T01:39:39.068Z,87.6
2017-06-09T01:40:45.900Z,87.5
2017-06-09T01:41:53.388Z,87.5
2017-06-09T01:43:00.866Z,88.3
2017-06-09T01:44:08.632Z,88.3
2017-06-09T01:45:16.115Z,88.3
2017-06-09T01:46:23.593Z,89.9
2017-06-09T01:47:31.074Z,86.8
2017-06-09T01:48:38.553Z,88.3
2017-06-09T01:49:46.281Z,87.9
2017-06-09T01:50:53.759Z,87.2
2017-06-09T01:52:01.244Z,88.9
2017-06-09T01:53:08.722Z,89.8
2017-06-09T01:54:16.200Z,89.3
2017-06-09T01:55:23.928Z,87.7
2017-06-09T01:56:31.408Z,88.6
2017-06-09T01:57:38.896Z,88.3
2017-06-09T01:58:46.377Z,87.3
2017-06-09T01:59:53.854Z,88.3
2017-06-09T02:01:01.588Z,89
2017-06-09T02:02:08.741Z,88.3
2017-06-09T02:03:16.217Z,88.9
2017-06-09T02:04:23.696Z,89.5
2017-06-09T02:05:31.177Z,88.4
2017-06-09T02:06:38.910Z,88.3
2017-06-09T02:07:46.393Z,89.2
2017-06-09T02:08:53.877Z,88.3
2017-06-09T02:10:01.030Z,87.6
2017-06-09T02:11:07.854Z,87
2017-06-09T02:12:15.590Z,88.3
2017-06-09T02:13:23.066Z,88.3
2017-06-09T02:14:30.577Z,89.3
2017-06-09T02:15:38.074Z,89.3
2017-06-09T02:16:45.539Z,89.8
2017-06-09T02:17:53.269Z,87.5
2017-06-09T02:19:00.751Z,89.9
2017-06-09T02:20:08.469Z,89.3
2017-06-09T02:21:15.947Z,89.7
2017-06-09T02:22:23.425Z,88.2
2017-06-09T02:23:31.155Z,88.7
2017-06-09T02:24:38.635Z,89.9
2017-06-09T02:25:46.110Z,89.3
2017-06-09T02:26:53.587Z,90.2
2017-06-09T02:28:01.069Z,89.9
2017-06-09T02:29:08.473Z,89.4
2017-06-09T02:30:15.961Z,89.8
2017-06-09T02:31:23.111Z,90.1
2017-06-09T02:32:29.927Z,87.3
2017-06-09T02:33:37.405Z,88.2
2017-06-09T02:34:45.136Z,88.9
2017-06-09T02:35:52.617Z,88.8
2017-06-09T02:37:00.100Z,89.5
2017-06-09T02:38:07.582Z,88.2
2017-06-09T02:39:15.061Z,89.8
2017-06-09T02:40:22.842Z,88.8
2017-06-09T02:41:30.323Z,88.8
2017-06-09T02:42:37.804Z,90.6
2017-06-09T02:43:45.288Z,90.6
2017-06-09T02:44:52.770Z,90.8
2017-06-09T02:46:00.506Z,91
2017-06-09T02:47:07.651Z,90.4
2017-06-09T02:48:15.134Z,90.2
2017-06-09T02:49:22.616Z,90.4
2017-06-09T02:50:30.097Z,90.1
2017-06-09T02:51:37.497Z,90.1
2017-06-09T02:52:44.975Z,88.8
2017-06-09T02:53:52.120Z,89.6
2017-06-09T02:54:59.606Z,90.4
2017-06-09T02:56:07.088Z,90.2
2017-06-09T02:57:14.825Z,90.5
2017-06-09T02:58:22.509Z,89.9
2017-06-09T02:59:29.990Z,90.5
2017-06-09T03:00:37.477Z,89.4
2017-06-09T03:01:44.958Z,90
2017-06-09T03:02:52.697Z,90.3
2017-06-09T03:04:00.175Z,90.8
2017-06-09T03:05:07.904Z,91
2017-06-09T03:06:15.376Z,90.6
2017-06-09T03:07:22.857Z,89.6
2017-06-09T03:08:30.588Z,91.1
2017-06-09T03:09:37.743Z,91.2
2017-06-09T03:10:44.894Z,90.7
2017-06-09T03:11:52.049Z,90.8
2017-06-09T03:12:59.529Z,90.9
2017-06-09T03:14:07.258Z,89.6
2017-06-09T03:15:14.739Z,91
2017-06-09T03:16:22.218Z,90.7
2017-06-09T03:17:29.712Z,91
2017-06-09T03:18:37.193Z,90.1
2017-06-09T03:19:44.779Z,90.1
2017-06-09T03:20:52.254Z,90.8
2017-06-09T03:21:59.749Z,90.5
2017-06-09T03:23:07.226Z,90.6
2017-06-09T03:24:14.707Z,90.3
2017-06-09T03:25:22.485Z,90.6
2017-06-09T03:26:29.970Z,89.9
2017-06-09T03:27:37.449Z,90.2
2017-06-09T03:28:44.928Z,89.8
2017-06-09T03:29:52.413Z,90.8
2017-06-09T03:31:00.141Z,91.3
2017-06-09T03:32:07.617Z,91.4
2017-06-09T03:33:15.094Z,90.5
2017-06-09T03:34:22.577Z,90.9
2017-06-09T03:35:30.059Z,91.3
2017-06-09T03:36:37.821Z,90.5
2017-06-09T03:37:45.053Z,89.8
2017-06-09T03:38:52.539Z,90.6
2017-06-09T03:40:00.020Z,90.3
2017-06-09T03:41:07.178Z,91.1
2017-06-09T03:42:15.012Z,91
2017-06-09T03:43:22.490Z,90.4
2017-06-09T03:44:29.965Z,90
2017-06-09T03:45:37.464Z,90.4
2017-06-09T03:46:44.943Z,90.4
2017-06-09T03:47:52.765Z,91.3
2017-06-09T03:49:00.243Z,90
2017-06-09T03:50:07.397Z,90.8
2017-06-09T03:51:14.871Z,91.1
2017-06-09T03:52:22.385Z,91.1
2017-06-09T03:53:30.218Z,90.1
2017-06-09T03:54:37.923Z,91.1
2017-06-09T03:55:45.401Z,90.3
2017-06-09T03:56:52.885Z,90
2017-06-09T03:58:00.362Z,90.3
2017-06-09T03:59:08.218Z,90.8
2017-06-09T04:00:15.379Z,91.2
2017-06-09T04:01:23.208Z,90.6
2017-06-09T04:02:30.691Z,90.8
2017-06-09T04:03:38.191Z,91.3
2017-06-09T04:04:46.045Z,90.8
2017-06-09T04:05:53.521Z,90.1
2017-06-09T04:07:01.002Z,90.4
2017-06-09T04:08:08.481Z,91.6
2017-06-09T04:09:15.962Z,91.2
2017-06-09T04:10:23.792Z,90.9
2017-06-09T04:11:31.274Z,90.9
2017-06-09T04:12:38.758Z,90.8
2017-06-09T04:13:46.246Z,91.1
2017-06-09T04:14:53.722Z,91.1
2017-06-09T04:16:01.551Z,90.8
2017-06-09T04:17:08.709Z,91.9
2017-06-09T04:18:16.186Z,91.2
2017-06-09T04:19:23.664Z,91.4
2017-06-09T04:20:31.142Z,90.7
2017-06-09T04:21:38.973Z,91
2017-06-09T04:22:46.124Z,91.1
2017-06-09T04:23:53.604Z,91.6
2017-06-09T04:25:01.087Z,91.2
2017-06-09T04:26:08.567Z,90.6
2017-06-09T04:27:16.403Z,90.5
2017-06-09T04:28:23.885Z,90.9
2017-06-09T04:29:31.365Z,90.4
2017-06-09T04:30:38.839Z,91.2
2017-06-09T04:31:46.319Z,90.2
2017-06-09T04:32:54.146Z,90.5
2017-06-09T04:34:01.637Z,91
2017-06-09T04:35:09.116Z,90.3
2017-06-09T04:36:16.602Z,90.9
2017-06-09T04:37:24.081Z,90.5
2017-06-09T04:38:31.861Z,91
2017-06-09T04:39:39.341Z,91
2017-06-09T04:40:46.822Z,90.8
2017-06-09T04:41:54.298Z,90.6
2017-06-09T04:43:01.445Z,90.7
2017-06-09T04:44:09.275Z,90.8
2017-06-09T04:45:16.751Z,90.6
2017-06-09T04:46:24.236Z,91
2017-06-09T04:47:31.390Z,90.7
2017-06-09T04:48:38.540Z,91.3
2017-06-09T04:49:46.117Z,91.5
2017-06-09T04:50:53.601Z,90.8
2017-06-09T04:52:00.752Z,91.2
2017-06-09T04:53:07.898Z,90.8
2017-06-09T04:54:15.049Z,90.9
2017-06-09T04:55:22.824Z,90.9
2017-06-09T04:56:30.311Z,91
2017-06-09T04:57:37.825Z,90.8
2017-06-09T04:58:45.314Z,90.4
2017-06-09T04:59:52.795Z,91
2017-06-09T05:01:00.560Z,90.2
2017-06-09T05:02:08.042Z,90.6
2017-06-09T05:03:15.522Z,90.4
2017-06-09T05:04:23.005Z,90.5
2017-06-09T05:05:30.493Z,90.3
2017-06-09T05:06:38.216Z,90.5
2017-06-09T05:07:45.702Z,90.5
2017-06-09T05:08:52.859Z,90.4
2017-06-09T05:10:00.343Z,90.2
2017-06-09T05:11:07.824Z,90.2
2017-06-09T05:12:15.650Z,90.4
2017-06-09T05:13:23.533Z,90.7
2017-06-09T05:14:31.014Z,90.4
2017-06-09T05:15:38.515Z,90.3
2017-06-09T05:16:46.001Z,90.3
2017-06-09T05:17:53.175Z,90.1
2017-06-09T05:19:00.654Z,90
2017-06-09T05:20:08.134Z,90
2017-06-09T05:22:37.679Z,90.3
2017-06-09T05:23:45.513Z,90
2017-06-09T05:24:52.992Z,89.7
2017-06-09T05:26:00.473Z,89.5
2017-06-09T05:27:07.959Z,90
2017-06-09T05:28:15.438Z,89.1
2017-06-09T05:29:23.274Z,87.9
2017-06-09T05:30:30.424Z,88.4
2017-06-09T05:31:37.900Z,88.6
2017-06-09T05:32:45.381Z,89
2017-06-09T05:33:52.533Z,88.2
2017-06-09T05:35:00.365Z,86.8
2017-06-09T05:36:07.895Z,87.1
2017-06-09T05:37:15.040Z,87.5
2017-06-09T05:38:22.519Z,86.8
2017-06-09T05:39:29.999Z,86.3
2017-06-09T05:40:37.829Z,86.6
2017-06-09T05:41:45.345Z,86.9
2017-06-09T05:42:52.527Z,86.5
2017-06-09T05:43:59.346Z,85.7
2017-06-09T05:45:06.498Z,85.3
2017-06-09T05:46:14.325Z,84.7
2017-06-09T05:47:21.802Z,88.4
2017-06-09T05:48:29.289Z,87.9
2017-06-09T05:49:36.766Z,83.9
2017-06-09T05:50:44.251Z,83.5
2017-06-09T05:51:52.072Z,84.5
2017-06-09T05:52:59.553Z,84
2017-06-09T05:54:07.033Z,84
2017-06-09T05:55:14.519Z,83.4
2017-06-09T05:56:21.673Z,84
2017-06-09T05:57:29.515Z,83.2
2017-06-09T05:58:37.006Z,82.4
2017-06-09T05:59:44.478Z,81.1
2017-06-09T06:00:51.964Z,80.7
2017-06-09T06:01:59.443Z,80.2
2017-06-09T06:03:07.275Z,82.2
2017-06-09T06:04:14.763Z,82
2017-06-09T06:05:22.247Z,78.2
2017-06-09T06:06:29.407Z,78
2017-06-09T06:07:36.901Z,77.4
2017-06-09T06:08:44.752Z,77.4
2017-06-09T06:09:52.227Z,75
2017-06-09T06:10:59.716Z,74.6
2017-06-09T06:12:07.196Z,76.2
2017-06-09T06:13:14.682Z,79
2017-06-09T06:15:44.802Z,73.6
2017-06-09T06:16:52.517Z,72.1
2017-06-09T06:18:00.000Z,71
2017-06-09T06:19:07.497Z,67.5
2017-06-09T06:20:15.331Z,69.6
2017-06-09T06:21:22.825Z,66.3
2017-06-09T06:22:29.981Z,65.1
2017-06-09T06:23:37.472Z,64.5
2017-06-09T06:24:44.636Z,62.8
2017-06-09T06:25:52.470Z,67.7
2017-06-09T06:28:22.072Z,62.6
2017-06-09T06:29:29.559Z,62.8
2017-06-09T06:30:37.043Z,63.1
2017-06-09T06:31:44.837Z,64.6
2017-06-09T06:32:52.321Z,64.8
2017-06-09T06:33:59.805Z,61.5
2017-06-09T06:35:07.299Z,62.2
2017-06-09T06:36:14.787Z,62.4
2017-06-09T06:37:22.366Z,61.1
2017-06-09T06:38:29.859Z,62
2017-06-09T06:39:37.343Z,60.5
2017-06-09T06:40:44.825Z,63.3
2017-06-09T06:41:52.325Z,65.1
2017-06-09T06:43:00.067Z,63.7
2017-06-09T06:44:07.558Z,58.5
2017-06-09T06:45:15.046Z,60.3
2017-06-09T06:46:23.354Z,60.1
2017-06-09T06:47:30.843Z,61.8
2017-06-09T06:48:38.637Z,60.7
2017-06-09T06:49:46.125Z,59.8
2017-06-09T06:50:53.609Z,57.8
2017-06-09T06:52:01.134Z,61.1
2017-06-09T06:53:08.290Z,59.8
2017-06-09T06:54:16.076Z,60.1
2017-06-09T06:55:23.568Z,58.6
2017-06-09T06:56:31.107Z,56.3
2017-06-09T06:57:38.599Z,58.8
2017-06-09T06:58:45.462Z,62.4
2017-06-09T06:59:53.202Z,58.6
2017-06-09T07:01:00.685Z,56.3
2017-06-09T07:02:07.841Z,59.2
2017-06-09T07:03:15.322Z,60.9
2017-06-09T07:04:22.812Z,57
2017-06-09T07:05:30.073Z,57.3
2017-06-09T07:06:37.799Z,59.3
2017-06-09T07:07:45.285Z,58.3
2017-06-09T07:08:52.772Z,59.4
2017-06-09T07:10:00.260Z,58.5
2017-06-09T07:11:07.856Z,61.7
2017-06-09T07:13:37.414Z,58.4
2017-06-09T07:14:44.902Z,58.3
2017-06-09T07:15:52.387Z,57.7
2017-06-09T07:17:00.182Z,59.7
2017-06-09T07:18:07.706Z,60.8
2017-06-09T07:19:15.204Z,58.3
2017-06-09T07:20:22.690Z,57.6
2017-06-09T07:21:30.177Z,56.9
2017-06-09T07:22:37.915Z,59
2017-06-09T07:23:45.416Z,58.5
2017-06-09T07:24:52.906Z,59.5
2017-06-09T07:26:00.397Z,57.6
2017-06-09T07:27:07.915Z,57.7
2017-06-09T07:28:15.505Z,58.9
2017-06-09T07:30:44.732Z,56.3
2017-06-09T07:31:52.220Z,57
2017-06-09T07:32:59.707Z,55.1
2017-06-09T07:34:07.492Z,54.5
2017-06-09T07:35:14.984Z,54
2017-06-09T07:36:22.475Z,58.3
2017-06-09T07:37:29.635Z,61
2017-06-09T07:38:37.139Z,56.2
2017-06-09T07:39:44.874Z,54.2
2017-06-09T07:40:52.364Z,53.4
2017-06-09T07:41:59.859Z,54
2017-06-09T07:43:07.354Z,53
2017-06-09T07:44:14.516Z,54.7
2017-06-09T07:45:22.107Z,52.6
2017-06-09T07:46:29.595Z,52.8
2017-06-09T07:47:36.759Z,53.7
2017-06-09T07:48:43.934Z,54.9
2017-06-09T07:49:51.090Z,54.4
2017-06-09T07:50:58.679Z,56.1
2017-06-09T07:52:06.165Z,54.1
2017-06-09T07:53:13.653Z,52.5
2017-06-09T07:54:20.810Z,53.6
2017-06-09T07:55:28.296Z,54.1
2017-06-09T07:56:36.043Z,52.2
2017-06-09T07:57:43.533Z,53.1
2017-06-09T07:58:51.025Z,53.3
2017-06-09T07:59:58.517Z,56.4
2017-06-09T08:01:06.005Z,54
2017-06-09T08:02:13.770Z,54.9
2017-06-09T08:03:20.929Z,53.6
2017-06-09T08:04:28.425Z,54.5
2017-06-09T08:05:35.925Z,53
2017-06-09T08:06:43.423Z,51.2
2017-06-09T08:07:51.012Z,55.7
2017-06-09T08:08:58.515Z,53.1
2017-06-09T08:10:06.006Z,53.1
2017-06-09T08:11:13.496Z,50
2017-06-09T08:12:20.683Z,51.4
2017-06-09T08:13:28.519Z,52.4
2017-06-09T08:14:36.011Z,52
2017-06-09T08:15:43.507Z,55.5
2017-06-09T08:16:51.002Z,50
2017-06-09T08:17:58.496Z,52
2017-06-09T08:19:06.088Z,51.3
2017-06-09T08:20:13.255Z,53.5
2017-06-09T08:21:20.746Z,51.3
2017-06-09T08:22:28.237Z,52.9
2017-06-09T08:23:35.730Z,53
2017-06-09T08:24:43.470Z,52.6
2017-06-09T08:25:50.961Z,50.3
2017-06-09T08:28:20.520Z,52.1
2017-06-09T08:29:28.011Z,51.8
2017-06-09T08:30:35.602Z,50.9
2017-06-09T08:31:43.090Z,51.4
2017-06-09T08:32:50.577Z,51.4
2017-06-09T08:33:58.068Z,52.9
2017-06-09T08:35:05.555Z,53.1
2017-06-09T08:36:13.145Z,52.9
2017-06-09T08:37:20.639Z,51.2
2017-06-09T08:38:28.124Z,52.9
2017-06-09T08:39:35.627Z,51.7
2017-06-09T08:40:43.137Z,52.3
2017-06-09T08:41:50.733Z,51.8
2017-06-09T08:42:58.225Z,51.6
2017-06-09T08:44:05.715Z,54.4
2017-06-09T08:45:13.206Z,52.8
2017-06-09T08:46:20.696Z,54.3
2017-06-09T08:47:28.288Z,52.9
2017-06-09T08:48:35.447Z,52.5
2017-06-09T08:49:42.939Z,55
2017-06-09T08:50:50.433Z,54.1
2017-06-09T08:51:57.927Z,52.8
2017-06-09T08:53:05.513Z,55.5
2017-06-09T08:54:12.999Z,52.2
2017-06-09T08:55:20.157Z,51.8
2017-06-09T08:56:27.649Z,54.1
2017-06-09T08:57:35.144Z,51.5
2017-06-09T08:58:42.731Z,53.4
2017-06-09T08:59:49.923Z,51.2
2017-06-09T09:00:57.414Z,51.8
2017-06-09T09:02:04.912Z,51.9
2017-06-09T09:03:12.398Z,51.7
2017-06-09T09:04:20.138Z,52.9
2017-06-09T09:05:27.631Z,52
2017-06-09T09:06:35.123Z,53.8
2017-06-09T09:07:42.614Z,52.5
2017-06-09T09:08:50.105Z,53.1
2017-06-09T09:09:57.851Z,53.8
2017-06-09T09:11:05.341Z,52.5
2017-06-09T09:12:12.829Z,52.5
2017-06-09T09:13:20.321Z,54.7
2017-06-09T09:14:27.811Z,54.6
2017-06-09T09:15:35.600Z,55.4
2017-06-09T09:16:43.087Z,53.3
2017-06-09T09:17:50.249Z,51.4
2017-06-09T09:18:57.758Z,52.1
2017-06-09T09:20:04.922Z,53.5
2017-06-09T09:21:12.522Z,49.6
2017-06-09T09:22:20.023Z,50.1
2017-06-09T09:23:27.533Z,50.6
2017-06-09T09:24:34.710Z,51.4
2017-06-09T09:25:42.200Z,54.5
2017-06-09T09:26:49.789Z,51.5
2017-06-09T09:27:57.276Z,50.3
2017-06-09T09:29:04.766Z,50.6
2017-06-09T09:30:12.259Z,52
2017-06-09T09:31:19.753Z,52.1
2017-06-09T09:32:27.501Z,51.7
2017-06-09T09:33:34.652Z,50.9
2017-06-09T09:34:42.143Z,52.2
2017-06-09T09:35:49.654Z,51.1
2017-06-09T09:36:57.146Z,50.5
2017-06-09T09:38:04.734Z,50.9
2017-06-09T09:39:12.221Z,51.6
2017-06-09T09:40:19.387Z,53.1
2017-06-09T09:41:26.879Z,52.9
2017-06-09T09:42:34.035Z,52.4
2017-06-09T09:43:41.774Z,52
2017-06-09T09:44:49.266Z,50.3
2017-06-09T09:45:56.758Z,52.8
2017-06-09T09:47:04.252Z,53.4
2017-06-09T09:48:11.755Z,52.9
2017-06-09T09:49:19.546Z,52.4
2017-06-09T09:50:27.034Z,52.7
2017-06-09T09:51:34.529Z,53.3
2017-06-09T09:52:41.678Z,52.8
2017-06-09T09:53:49.176Z,52.6
2017-06-09T09:54:56.967Z,52.6
2017-06-09T09:56:04.453Z,52
2017-06-09T09:57:11.940Z,52.7
2017-06-09T09:58:19.434Z,51.8
2017-06-09T09:59:26.942Z,53.1
2017-06-09T10:00:34.693Z,52.6
2017-06-09T10:01:42.186Z,53.5
2017-06-09T10:02:49.674Z,51.3
2017-06-09T10:03:57.162Z,51.9
2017-06-09T10:05:04.659Z,50.8
2017-06-09T10:06:12.402Z,50
2017-06-09T10:07:19.889Z,53.2
2017-06-09T10:08:27.374Z,51.1
2017-06-09T10:09:34.871Z,49.2
2017-06-09T10:10:42.260Z,49.1
2017-06-09T10:11:49.852Z,50.6
2017-06-09T10:12:57.344Z,51.5
2017-06-09T10:14:04.830Z,51.7
2017-06-09T10:15:11.996Z,50.5
2017-06-09T10:16:19.486Z,51.4
2017-06-09T10:17:27.078Z,50.9
2017-06-09T10:18:34.576Z,51
2017-06-09T10:19:41.738Z,50
2017-06-09T10:20:48.900Z,49.7
2017-06-09T10:21:56.064Z,51.2
2017-06-09T10:23:03.805Z,51.9
2017-06-09T10:24:11.292Z,50.6
2017-06-09T10:25:18.807Z,51.2
2017-06-09T10:26:26.302Z,51.5
2017-06-09T10:27:33.797Z,50.5
2017-06-09T10:28:41.269Z,51.5
2017-06-09T10:29:48.762Z,53.2
2017-06-09T10:30:56.287Z,50.3
2017-06-09T10:32:03.779Z,48.3
2017-06-09T10:33:11.271Z,49.5
2017-06-09T10:34:19.118Z,50.3
2017-06-09T10:35:26.608Z,51
2017-06-09T10:36:34.099Z,51.2
2017-06-09T10:37:41.592Z,49.8
2017-06-09T10:38:49.080Z,51.2
2017-06-09T10:39:56.845Z,48.7
2017-06-09T10:41:04.013Z,48.4
2017-06-09T10:42:11.513Z,50.2
2017-06-09T10:43:19.009Z,48.5
2017-06-09T10:44:26.525Z,48.4
2017-06-09T10:45:34.138Z,50
2017-06-09T10:46:41.623Z,51.2
2017-06-09T10:47:49.117Z,50.1
2017-06-09T10:48:56.611Z,52.1
2017-06-09T10:50:04.102Z,51.2
2017-06-09T10:51:11.522Z,48
2017-06-09T10:52:19.023Z,49.8
2017-06-09T10:53:26.517Z,48.1
2017-06-09T10:54:34.008Z,48.7
2017-06-09T10:55:41.508Z,48.8
2017-06-09T10:58:11.055Z,48.2
2017-06-09T10:59:18.599Z,49
2017-06-09T11:00:26.099Z,48.5
2017-06-09T11:01:33.596Z,50.2
2017-06-09T11:02:41.443Z,50.2
2017-06-09T11:03:48.944Z,48.7
2017-06-09T11:04:56.449Z,49.1
2017-06-09T11:06:03.949Z,50.3
2017-06-09T11:07:11.452Z,50.8
2017-06-09T11:08:18.732Z,49.4
2017-06-09T11:09:26.225Z,50.6
2017-06-09T11:10:33.727Z,50.2
2017-06-09T11:11:41.228Z,48.5
2017-06-09T11:12:48.727Z,49.2
2017-06-09T11:13:56.203Z,48.3
2017-06-09T11:15:03.697Z,48.2
2017-06-09T11:16:11.191Z,46.3
2017-06-09T11:17:18.686Z,46.1
2017-06-09T11:18:26.170Z,48.1
2017-06-09T11:19:33.688Z,48.1
2017-06-09T11:20:40.852Z,47.7
2017-06-09T11:21:48.344Z,46.7
2017-06-09T11:22:55.832Z,50
2017-06-09T11:24:03.318Z,48.5
2017-06-09T11:25:11.159Z,46.3
2017-06-09T11:26:18.647Z,47.2
2017-06-09T11:27:25.806Z,48.3
2017-06-09T11:28:33.298Z,49.5
2017-06-09T11:29:40.785Z,48
2017-06-09T11:30:48.629Z,48
2017-06-09T11:31:56.118Z,48
2017-06-09T11:33:03.611Z,48.1
2017-06-09T11:34:10.769Z,50.3
2017-06-09T11:35:18.259Z,48.5
2017-06-09T11:36:26.099Z,47.7
2017-06-09T11:37:33.585Z,49
2017-06-09T11:38:41.077Z,47.8
2017-06-09T11:39:48.569Z,47.5
2017-06-09T11:40:56.057Z,49.4
2017-06-09T11:42:03.897Z,48.6
2017-06-09T11:43:11.390Z,49
2017-06-09T11:44:18.879Z,49.9
2017-06-09T11:45:26.371Z,49.7
2017-06-09T11:46:33.861Z,50.2
2017-06-09T11:47:41.701Z,50.7
2017-06-09T11:48:48.865Z,51.6
2017-06-09T11:49:56.571Z,50.9
2017-06-09T11:51:04.062Z,49.7
2017-06-09T11:52:11.555Z,50.5
2017-06-09T11:53:19.343Z,51
2017-06-09T11:54:26.837Z,51.6
2017-06-09T11:55:34.329Z,51.5
2017-06-09T11:56:41.823Z,50.6
2017-06-09T11:57:49.326Z,52.3
2017-06-09T11:58:56.915Z,52.4
2017-06-09T12:00:04.404Z,51.2
2017-06-09T12:01:11.906Z,52.4
2017-06-09T12:02:19.384Z,51.5
2017-06-09T12:03:26.540Z,52.8
2017-06-09T12:04:34.290Z,52.3
2017-06-09T12:05:41.787Z,51.6
2017-06-09T12:06:49.281Z,51.2
2017-06-09T12:07:56.773Z,52.6
2017-06-09T12:09:04.002Z,52.1
2017-06-09T12:10:11.270Z,53.1
2017-06-09T12:11:18.774Z,51.2
2017-06-09T12:12:25.937Z,53.3
2017-06-09T12:13:33.100Z,53.5
2017-06-09T12:14:40.598Z,54.3
2017-06-09T12:15:48.393Z,53.1
2017-06-09T12:16:55.554Z,52
2017-06-09T12:18:02.718Z,53.8
2017-06-09T12:19:09.890Z,54.6
2017-06-09T12:20:17.392Z,53
2017-06-09T12:21:25.002Z,53.8
2017-06-09T12:22:32.491Z,54.3
2017-06-09T12:23:39.975Z,54.3
2017-06-09T12:24:47.137Z,54.4
2017-06-09T12:25:54.627Z,54.4
2017-06-09T12:27:02.226Z,55.4
2017-06-09T12:28:09.719Z,55.9
2017-06-09T12:29:17.209Z,56.2
2017-06-09T12:30:24.702Z,57.3
2017-06-09T12:31:32.199Z,57
2017-06-09T12:32:39.792Z,56.9
2017-06-09T12:33:47.284Z,58.1
2017-06-09T12:34:54.774Z,57.2
2017-06-09T12:36:02.263Z,57.6
2017-06-09T12:37:09.753Z,58.1
2017-06-09T12:38:17.165Z,58.5
2017-06-09T12:39:24.655Z,58.6
2017-06-09T12:40:32.146Z,58.9
2017-06-09T12:41:39.637Z,58.3
2017-06-09T12:42:47.130Z,58.8
2017-06-09T12:43:54.921Z,59.5
2017-06-09T12:45:02.414Z,58.5
2017-06-09T12:46:09.908Z,58.1
2017-06-09T12:47:17.067Z,58.8
2017-06-09T12:48:24.556Z,59.2
2017-06-09T12:49:32.354Z,58.8
2017-06-09T12:50:39.851Z,59.8
2017-06-09T12:51:47.091Z,60.9
2017-06-09T12:52:54.259Z,60
2017-06-09T12:54:01.752Z,61.3
2017-06-09T12:55:09.551Z,62.2
2017-06-09T12:56:17.051Z,62.7
2017-06-09T12:57:24.213Z,62.7
2017-06-09T12:58:31.371Z,62.1
2017-06-09T12:59:38.863Z,62.7
2017-06-09T13:00:46.381Z,62.3
2017-06-09T13:01:53.870Z,62.3
2017-06-09T13:03:01.355Z,62.2
2017-06-09T13:04:08.515Z,61.6
2017-06-09T13:05:16.008Z,61.1
2017-06-09T13:06:23.464Z,61.9
2017-06-09T13:07:30.958Z,63
2017-06-09T13:08:37.797Z,62.7
2017-06-09T13:09:45.286Z,62.4
2017-06-09T13:10:52.774Z,62.2
2017-06-09T13:12:00.360Z,61.6
2017-06-09T13:13:07.873Z,61
2017-06-09T13:14:15.359Z,61.4
2017-06-09T13:15:22.863Z,62.6
2017-06-09T13:16:30.020Z,61.4
2017-06-09T13:17:37.622Z,61.5
2017-06-09T13:18:45.112Z,61.3
2017-06-09T13:19:52.604Z,61.5
2017-06-09T13:21:00.100Z,62
2017-06-09T13:22:07.263Z,62.2
2017-06-09T13:23:14.531Z,62.8
2017-06-09T13:24:22.253Z,62.5
2017-06-09T13:25:29.749Z,63
2017-06-09T13:26:37.237Z,62.4
2017-06-09T13:27:44.732Z,63.2
2017-06-09T13:28:52.314Z,62.9
2017-06-09T13:29:59.469Z,64.1
2017-06-09T13:31:06.956Z,63.3
2017-06-09T13:32:14.113Z,63.3
2017-06-09T13:33:21.609Z,62.9
2017-06-09T13:34:29.363Z,63.1
2017-06-09T13:35:36.847Z,63.4
2017-06-09T13:36:44.333Z,64.1
2017-06-09T13:37:51.485Z,63.8
2017-06-09T13:38:58.979Z,64.4
2017-06-09T13:40:06.718Z,64.8
2017-06-09T13:41:14.215Z,64.6
2017-06-09T13:42:21.372Z,65.1
2017-06-09T13:43:29.096Z,65.5
2017-06-09T13:44:36.587Z,64.2
2017-06-09T13:45:44.183Z,63.6
2017-06-09T13:46:51.343Z,64.9
2017-06-09T13:47:58.502Z,65.5
2017-06-09T13:49:05.987Z,65.1
2017-06-09T13:50:13.474Z,64.9
2017-06-09T13:51:21.061Z,65.1
2017-06-09T13:52:28.553Z,65.1
2017-06-09T13:53:36.043Z,65.4
2017-06-09T13:54:43.532Z,66.1
2017-06-09T13:55:50.370Z,65.6
2017-06-09T13:56:57.642Z,66.4
2017-06-09T13:58:05.134Z,65.5
2017-06-09T13:59:12.624Z,66.6
2017-06-09T14:00:20.118Z,67.4
2017-06-09T14:01:27.608Z,67.1
2017-06-09T14:02:35.407Z,66.5
2017-06-09T14:03:42.893Z,67.6
2017-06-09T14:04:50.388Z,68
2017-06-09T14:05:57.868Z,66.8
2017-06-09T14:07:05.021Z,68.6
2017-06-09T14:08:12.482Z,68.6
2017-06-09T14:09:19.974Z,68.5
2017-06-09T14:10:27.456Z,70.1
2017-06-09T14:11:34.652Z,69.3
2017-06-09T14:12:42.140Z,69.4
2017-06-09T14:13:49.928Z,69.1
2017-06-09T14:14:57.413Z,69.2
2017-06-09T14:16:04.908Z,70.1
2017-06-09T14:17:12.398Z,69.4
2017-06-09T14:18:19.882Z,72
2017-06-09T14:19:27.673Z,70.9
2017-06-09T14:20:35.167Z,70.8
2017-06-09T14:21:42.651Z,71.1
2017-06-09T14:24:12.206Z,70.1
2017-06-09T14:25:19.992Z,68
2017-06-09T14:26:27.486Z,71.4
2017-06-09T14:27:34.973Z,70.6
2017-06-09T14:28:42.136Z,67.7
2017-06-09T14:29:49.631Z,70.4
2017-06-09T14:30:57.418Z,67.8
2017-06-09T14:32:04.577Z,66
2017-06-09T14:33:12.064Z,67.3
2017-06-09T14:34:19.559Z,67.4
2017-06-09T14:35:27.043Z,64.9
2017-06-09T14:36:34.822Z,64.9
2017-06-09T14:37:41.986Z,66.8
2017-06-09T14:38:49.471Z,67
2017-06-09T14:39:56.962Z,66.5
2017-06-09T14:41:04.448Z,68.4
2017-06-09T14:42:12.232Z,65.5
2017-06-09T14:43:19.724Z,64.7
2017-06-09T14:44:27.217Z,65.3
2017-06-09T14:45:34.706Z,64.3
2017-06-09T14:46:42.064Z,65.9
2017-06-09T14:47:49.860Z,65.8
2017-06-09T14:48:57.345Z,64.5
2017-06-09T14:50:04.507Z,65.3
2017-06-09T14:51:11.674Z,65.7
2017-06-09T14:52:19.165Z,64.3
2017-06-09T14:53:26.948Z,66.3
2017-06-09T14:54:34.434Z,63.8
2017-06-09T14:55:41.926Z,61.3
2017-06-09T14:56:49.412Z,62.5
2017-06-09T14:57:56.898Z,62.4
2017-06-09T14:59:04.686Z,60.9
2017-06-09T15:00:12.171Z,63.7
2017-06-09T15:01:19.663Z,60.8
2017-06-09T15:02:26.820Z,59.9
2017-06-09T15:03:34.319Z,61.1
2017-06-09T15:04:42.102Z,61.5
2017-06-09T15:05:48.929Z,61
2017-06-09T15:06:56.416Z,62.4
2017-06-09T15:08:03.900Z,60.8
2017-06-09T15:09:11.387Z,63.1
2017-06-09T15:10:19.174Z,62.6
2017-06-09T15:11:26.332Z,62.8
2017-06-09T15:12:33.822Z,62
2017-06-09T15:13:41.315Z,61.9
2017-06-09T15:14:48.822Z,61.8
2017-06-09T15:15:56.608Z,61.6
2017-06-09T15:17:04.099Z,61.3
2017-06-09T15:18:11.592Z,62.4